Time;durP1;ratioP1;P1;durP2;ratioP2;P2;SDS_P1;SDS_P2;PMS_P1;PMS_P2;Temp;Humidity;BMP_temperature;BMP_pressure;BME280_temperature;BME280_humidity;BME280_pressure;Samples;Min_cycle;Max_cycle;Signal;HPM_P1;HPM_P2
2022/06/19 00:02:20;;;;;;;2.35;0.90;;;23.90;54.50;;;;;;5037155;28;20092;-80
2022/06/19 00:04:49;;;;;;;2.67;1.00;;;23.80;54.70;;;;;;5028930;28;20765;-79
2022/06/19 00:07:15;;;;;;;3.05;1.08;;;23.80;54.90;;;;;;5065764;28;20071;-79
2022/06/19 00:09:41;;;;;;;3.00;1.02;;;23.80;54.70;;;;;;5039808;28;20400;-80
2022/06/19 00:12:09;;;;;;;3.33;1.05;;;23.70;54.70;;;;;;5048099;28;20543;-80
2022/06/19 00:14:36;;;;;;;2.20;0.93;;;23.70;55.00;;;;;;5058043;28;20032;-80
2022/06/19 00:17:03;;;;;;;2.37;1.00;;;23.70;54.80;;;;;;5037194;28;20094;-79
2022/06/19 00:19:29;;;;;;;1.75;1.00;;;23.60;54.90;;;;;;5046076;28;20040;-80
2022/06/19 00:21:54;;;;;;;2.95;1.00;;;23.50;54.90;;;;;;5040660;28;20043;-79
2022/06/19 00:24:20;;;;;;;2.30;1.10;;;23.50;55.10;;;;;;5068945;28;20092;-79
2022/06/19 00:26:46;;;;;;;5.90;1.08;;;23.40;55.10;;;;;;5051431;28;20051;-79
2022/06/19 00:29:11;;;;;;;4.03;1.10;;;23.40;55.20;;;;;;5056882;28;20091;-80
2022/06/19 00:31:37;;;;;;;2.57;1.00;;;23.30;55.20;;;;;;5045750;28;20480;-80
2022/06/19 00:34:03;;;;;;;3.03;0.90;;;23.20;55.40;;;;;;5042601;28;20048;-80
2022/06/19 00:36:29;;;;;;;2.72;0.90;;;23.10;55.40;;;;;;5052119;28;20037;-80
2022/06/19 00:38:56;;;;;;;3.28;1.08;;;23.10;55.50;;;;;;5051590;28;20051;-79
2022/06/19 00:41:23;;;;;;;2.27;0.93;;;23.00;55.60;;;;;;5047587;28;20025;-80
2022/06/19 00:43:59;;;;;;;2.35;0.90;;;22.90;55.60;;;;;;5049124;28;20310;-79
2022/06/19 00:46:54;;;;;;;4.10;1.27;;;22.80;56.50;;;;;;5053783;28;20024;-79
2022/06/19 00:49:33;;;;;;;2.47;0.90;;;22.80;56.70;;;;;;5037427;28;20060;-79
2022/06/19 00:52:10;;;;;;;3.05;0.93;;;22.70;56.70;;;;;;5049741;28;20219;-79
2022/06/19 00:54:58;;;;;;;2.27;0.87;;;22.60;56.30;;;;;;5060029;28;20040;-79
2022/06/19 00:57:26;;;;;;;3.78;1.00;;;22.60;56.10;;;;;;5044320;28;20047;-78
2022/06/19 01:00:01;;;;;;;1.73;0.82;;;22.50;55.90;;;;;;5051091;28;20488;-79
2022/06/19 01:02:26;;;;;;;3.28;1.10;;;22.50;56.40;;;;;;5050595;28;20043;-79
2022/06/19 01:04:54;;;;;;;4.40;1.00;;;22.40;55.90;;;;;;5020926;28;20032;-80
2022/06/19 01:07:22;;;;;;;1.92;0.90;;;22.40;55.90;;;;;;5038798;28;20073;-80
2022/06/19 01:09:49;;;;;;;3.35;0.90;;;22.30;55.80;;;;;;5052956;28;20608;-80
2022/06/19 01:12:15;;;;;;;2.20;0.80;;;22.20;55.80;;;;;;5039897;28;20036;-79
2022/06/19 01:14:43;;;;;;;3.60;1.10;;;22.20;55.80;;;;;;5047594;28;20040;-81
2022/06/19 01:17:11;;;;;;;2.63;0.80;;;22.10;55.70;;;;;;5047174;28;20045;-78
2022/06/19 01:19:41;;;;;;;3.38;1.00;;;22.00;55.80;;;;;;5033298;28;20627;-80
2022/06/19 01:22:36;;;;;;;3.10;0.88;;;21.90;55.90;;;;;;5035431;28;20029;-79
2022/06/19 01:25:04;;;;;;;2.45;0.82;;;21.90;56.40;;;;;;5037877;28;20048;-79
2022/06/19 01:30:19;;;;;;;4.43;0.88;;;21.70;55.80;;;;;;5030688;28;20037;-80
2022/06/19 01:32:48;;;;;;;4.45;1.05;;;21.70;55.60;;;;;;5053606;28;20075;-79
2022/06/19 01:35:15;;;;;;;2.67;1.00;;;21.70;55.50;;;;;;5023028;28;20396;-79
2022/06/19 01:37:42;;;;;;;2.63;0.90;;;21.60;55.40;;;;;;5031500;28;20033;-80
2022/06/19 01:40:11;;;;;;;2.73;0.83;;;21.60;55.50;;;;;;5047406;28;20039;-79
2022/06/19 01:42:37;;;;;;;2.72;0.70;;;21.50;55.50;;;;;;5034668;28;21824;-79
2022/06/19 01:45:05;;;;;;;3.45;0.60;;;21.50;55.30;;;;;;5044198;28;20505;-80
2022/06/19 01:47:30;;;;;;;3.63;0.80;;;21.50;55.10;;;;;;5043516;28;20309;-79
2022/06/19 01:49:58;;;;;;;2.23;0.60;;;21.40;54.60;;;;;;5053598;28;20032;-80
2022/06/19 01:52:26;;;;;;;3.03;0.75;;;21.40;54.00;;;;;;5029140;28;20336;-79
2022/06/19 01:55:06;;;;;;;2.15;0.70;;;21.30;53.80;;;;;;5049194;28;20033;-80
2022/06/19 01:57:34;;;;;;;2.45;0.60;;;21.30;53.40;;;;;;5037952;28;20428;-79
2022/06/19 02:00:02;;;;;;;2.53;0.55;;;21.20;53.00;;;;;;5050206;28;20024;-79
2022/06/19 02:02:32;;;;;;;1.83;0.70;;;21.20;52.70;;;;;;5038947;28;20029;-79
2022/06/19 02:04:58;;;;;;;2.20;0.70;;;21.10;52.70;;;;;;5049471;28;20524;-79
2022/06/19 02:07:26;;;;;;;3.67;0.80;;;21.10;52.70;;;;;;5036647;28;20083;-79
2022/06/19 02:09:54;;;;;;;2.58;0.70;;;21.00;52.70;;;;;;5058203;28;20442;-79
2022/06/19 02:12:22;;;;;;;2.50;0.70;;;21.00;52.70;;;;;;5041496;28;20132;-79
2022/06/19 02:14:49;;;;;;;2.10;0.70;;;21.00;52.70;;;;;;5049290;28;20061;-79
2022/06/19 02:17:42;;;;;;;1.60;0.70;;;21.00;52.70;;;;;;5044979;28;20086;-80
2022/06/19 02:20:10;;;;;;;4.80;0.70;;;21.00;52.60;;;;;;5050215;28;20138;-78
2022/06/19 02:22:35;;;;;;;2.38;0.70;;;20.90;52.70;;;;;;5034676;28;20174;-80
2022/06/19 02:25:03;;;;;;;2.30;0.73;;;21.00;52.80;;;;;;5055783;28;20120;-79
2022/06/19 02:27:32;;;;;;;3.20;0.70;;;20.90;52.90;;;;;;5052552;28;20348;-79
2022/06/19 02:29:59;;;;;;;2.60;0.73;;;20.90;52.90;;;;;;5038419;28;20037;-79
2022/06/19 02:32:34;;;;;;;2.85;0.70;;;20.90;53.00;;;;;;5044424;28;20443;-79
2022/06/19 02:35:00;;;;;;;3.30;0.90;;;20.90;53.00;;;;;;5056266;28;20086;-79
2022/06/19 02:37:30;;;;;;;2.05;0.60;;;20.90;52.90;;;;;;5028696;28;20597;-79
2022/06/19 02:40:05;;;;;;;4.05;0.70;;;20.80;52.80;;;;;;5056053;28;20432;-80
2022/06/19 02:42:34;;;;;;;4.82;0.80;;;20.80;52.80;;;;;;5045564;28;20301;-80
2022/06/19 02:45:05;;;;;;;2.25;0.70;;;20.70;52.70;;;;;;5038537;28;20029;-79
2022/06/19 02:47:34;;;;;;;1.97;0.50;;;20.70;52.60;;;;;;5048958;28;20036;-80
2022/06/19 02:50:00;;;;;;;3.78;0.82;;;20.70;52.50;;;;;;5048458;28;20092;-80
2022/06/19 02:52:26;;;;;;;4.93;0.88;;;20.60;52.40;;;;;;5050378;28;20187;-80
2022/06/19 02:54:53;;;;;;;3.15;0.60;;;20.50;52.40;;;;;;5037851;28;20034;-79
2022/06/19 02:57:18;;;;;;;3.28;0.70;;;20.40;52.40;;;;;;5036861;28;20051;-79
2022/06/19 02:59:44;;;;;;;3.20;0.60;;;20.30;52.30;;;;;;5059429;28;20032;-79
2022/06/19 03:02:14;;;;;;;2.83;0.77;;;20.20;52.40;;;;;;5042466;28;20510;-79
2022/06/19 03:04:47;;;;;;;1.80;0.60;;;20.20;52.50;;;;;;5050416;28;20074;-79
2022/06/19 03:07:12;;;;;;;2.03;0.60;;;20.10;52.40;;;;;;5047407;28;20028;-79
2022/06/19 03:09:38;;;;;;;4.07;0.60;;;20.00;52.40;;;;;;5031467;28;20035;-80
2022/06/19 03:12:04;;;;;;;1.73;0.57;;;20.00;52.50;;;;;;5059709;28;20029;-79
2022/06/19 03:14:29;;;;;;;2.20;0.60;;;19.90;52.60;;;;;;5046236;28;20032;-80
2022/06/19 03:16:55;;;;;;;1.08;0.40;;;19.80;52.70;;;;;;5041039;28;20032;-80
2022/06/19 03:19:21;;;;;;;2.37;0.60;;;19.80;52.80;;;;;;5046652;28;20333;-79
2022/06/19 03:21:49;;;;;;;1.67;0.50;;;19.80;53.00;;;;;;5053194;28;20114;-79
2022/06/19 03:24:15;;;;;;;1.87;0.57;;;19.70;53.10;;;;;;5032813;28;20374;-78
2022/06/19 03:26:40;;;;;;;1.00;0.43;;;19.70;53.10;;;;;;5038891;28;20029;-80
2022/06/19 03:29:07;;;;;;;1.92;0.55;;;19.70;53.10;;;;;;5045569;28;20089;-79
2022/06/19 03:31:32;;;;;;;2.70;0.50;;;19.60;53.00;;;;;;5038106;28;20241;-79
2022/06/19 03:33:58;;;;;;;2.45;0.60;;;19.60;53.10;;;;;;5057678;28;20389;-79
2022/06/19 03:36:24;;;;;;;2.33;0.60;;;19.50;52.90;;;;;;5046824;28;20029;-79
2022/06/19 03:38:50;;;;;;;1.10;0.43;;;19.50;52.80;;;;;;5047860;28;20093;-80
2022/06/19 03:41:16;;;;;;;1.23;0.52;;;19.40;52.80;;;;;;5031311;28;20037;-79
2022/06/19 03:43:42;;;;;;;1.83;0.57;;;19.40;52.80;;;;;;5056038;28;20021;-79
2022/06/19 03:46:15;;;;;;;6.53;0.70;;;19.30;53.40;;;;;;5046134;28;20041;-80
2022/06/19 03:48:49;;;;;;;3.22;0.50;;;19.30;52.60;;;;;;5046880;28;20115;-79
2022/06/19 03:51:16;;;;;;;1.23;0.45;;;19.30;52.70;;;;;;5046078;28;20036;-80
2022/06/19 03:53:42;;;;;;;1.92;0.52;;;19.20;52.60;;;;;;5042655;28;20032;-79
2022/06/19 03:56:10;;;;;;;1.85;0.40;;;19.20;52.50;;;;;;5041824;28;20029;-79
2022/06/19 03:58:47;;;;;;;1.07;0.40;;;19.10;52.50;;;;;;5042967;28;20040;-80
2022/06/19 04:01:22;;;;;;;1.50;0.52;;;19.10;52.40;;;;;;5040946;28;20033;-79
2022/06/19 04:03:49;;;;;;;4.43;0.45;;;19.10;52.30;;;;;;5053550;28;20432;-79
2022/06/19 04:06:18;;;;;;;1.42;0.40;;;19.10;52.30;;;;;;5046650;28;20037;-79
2022/06/19 04:08:47;;;;;;;2.03;0.60;;;19.10;52.20;;;;;;5048611;28;20548;-79
2022/06/19 04:11:14;;;;;;;2.10;0.50;;;19.20;52.10;;;;;;5045912;28;20488;-79
2022/06/19 04:13:40;;;;;;;0.85;0.40;;;19.20;51.90;;;;;;5026223;28;20165;-79
2022/06/19 04:16:08;;;;;;;2.28;0.40;;;19.20;51.90;;;;;;5048859;28;20151;-80
2022/06/19 04:18:34;;;;;;;1.77;0.50;;;19.20;51.80;;;;;;5042356;28;20333;-79
2022/06/19 04:21:01;;;;;;;3.13;0.50;;;19.20;51.70;;;;;;5047950;28;20040;-79
2022/06/19 04:23:28;;;;;;;3.08;0.40;;;19.20;51.70;;;;;;5048790;28;20037;-79
2022/06/19 04:25:54;;;;;;;1.30;0.50;;;19.20;51.70;;;;;;5052152;28;20609;-79
2022/06/19 04:28:24;;;;;;;1.35;0.47;;;19.20;51.80;;;;;;5026096;28;20187;-79
2022/06/19 04:30:51;;;;;;;1.08;0.50;;;19.30;51.90;;;;;;5051114;28;20041;-79
2022/06/19 04:33:18;;;;;;;2.87;0.60;;;19.30;51.90;;;;;;5022430;28;20036;-79
2022/06/19 04:35:45;;;;;;;1.70;0.50;;;19.30;52.10;;;;;;5053292;28;20476;-79
2022/06/19 04:38:11;;;;;;;1.30;0.47;;;19.40;52.20;;;;;;5051289;28;20059;-79
2022/06/19 04:40:37;;;;;;;1.20;0.67;;;19.40;52.10;;;;;;5032563;28;20087;-80
2022/06/19 04:43:04;;;;;;;1.00;0.50;;;19.50;52.10;;;;;;5025972;28;21461;-79
2022/06/19 04:45:30;;;;;;;1.60;0.50;;;19.50;52.00;;;;;;5046149;28;20400;-80
2022/06/19 04:47:56;;;;;;;3.47;0.50;;;19.60;52.10;;;;;;5042176;28;20033;-79
2022/06/19 04:50:21;;;;;;;1.10;0.50;;;19.60;52.00;;;;;;5045014;28;20130;-79
2022/06/19 04:52:48;;;;;;;3.85;0.60;;;19.60;52.10;;;;;;5047959;28;20111;-79
2022/06/19 04:55:15;;;;;;;1.50;0.50;;;19.70;52.10;;;;;;5050382;28;20594;-79
2022/06/19 04:57:41;;;;;;;1.37;0.50;;;19.70;52.10;;;;;;5035708;28;20057;-79
2022/06/19 05:00:09;;;;;;;1.40;0.40;;;19.80;52.10;;;;;;5025851;28;20035;-79
2022/06/19 05:02:35;;;;;;;1.42;0.50;;;19.80;52.10;;;;;;5043105;28;20082;-79
2022/06/19 05:05:00;;;;;;;2.00;0.60;;;19.80;51.90;;;;;;5024343;28;20108;-79
2022/06/19 05:07:26;;;;;;;2.10;0.40;;;19.90;51.80;;;;;;5052718;28;20527;-79
2022/06/19 05:09:51;;;;;;;1.37;0.50;;;19.90;52.00;;;;;;5047241;28;20088;-79
2022/06/19 05:12:17;;;;;;;1.35;0.40;;;19.90;52.00;;;;;;5054220;28;20060;-79
2022/06/19 05:14:43;;;;;;;1.17;0.47;;;19.80;52.20;;;;;;5015087;28;20136;-79
2022/06/19 05:17:08;;;;;;;2.60;0.40;;;19.80;52.60;;;;;;5051960;28;20020;-79
2022/06/19 05:19:34;;;;;;;1.67;0.60;;;19.80;52.90;;;;;;5037769;28;20056;-79
2022/06/19 05:22:00;;;;;;;1.03;0.50;;;19.70;53.30;;;;;;5032199;28;20111;-79
2022/06/19 05:24:26;;;;;;;1.45;0.40;;;19.70;53.60;;;;;;5042918;28;20094;-79
2022/06/19 05:26:53;;;;;;;1.95;0.43;;;19.70;53.60;;;;;;5030750;28;20214;-79
2022/06/19 05:29:18;;;;;;;2.30;0.50;;;19.70;53.60;;;;;;5028294;28;20029;-79
2022/06/19 05:31:45;;;;;;;1.63;0.60;;;19.70;53.80;;;;;;5049859;28;20297;-79
2022/06/19 05:34:10;;;;;;;1.77;0.47;;;19.60;54.00;;;;;;5045199;28;20083;-79
2022/06/19 05:36:36;;;;;;;1.85;0.50;;;19.70;54.30;;;;;;5033043;28;20120;-79
2022/06/19 05:39:02;;;;;;;1.17;0.40;;;19.70;54.70;;;;;;5053160;28;20037;-79
2022/06/19 05:41:30;;;;;;;1.42;0.50;;;19.80;54.80;;;;;;5049461;28;20445;-79
2022/06/19 05:43:56;;;;;;;1.48;0.50;;;19.80;54.80;;;;;;5039044;28;20676;-79
2022/06/19 05:46:22;;;;;;;1.53;0.50;;;19.90;54.60;;;;;;5015680;28;20037;-80
2022/06/19 05:48:49;;;;;;;0.65;0.50;;;20.00;54.50;;;;;;5049782;28;20233;-80
2022/06/19 05:51:20;;;;;;;0.75;0.47;;;20.00;54.20;;;;;;5054710;28;20032;-80
2022/06/19 05:53:57;;;;;;;1.80;0.70;;;20.00;54.80;;;;;;5031563;28;20946;-80
2022/06/19 05:56:24;;;;;;;1.00;0.50;;;20.00;53.80;;;;;;5053779;28;20039;-79
2022/06/19 05:58:50;;;;;;;1.17;0.40;;;20.00;53.60;;;;;;5037044;28;20086;-79
2022/06/19 06:01:18;;;;;;;1.10;0.57;;;19.90;53.30;;;;;;5030441;28;20041;-78
2022/06/19 06:03:44;;;;;;;2.08;0.60;;;19.90;53.30;;;;;;5042998;28;20567;-79
2022/06/19 06:06:19;;;;;;;1.10;0.50;;;19.90;53.30;;;;;;5049272;28;20040;-79
2022/06/19 06:08:45;;;;;;;2.33;0.60;;;19.80;53.30;;;;;;5031541;28;20020;-80
2022/06/19 06:11:11;;;;;;;2.40;0.68;;;19.80;53.30;;;;;;5036576;28;20131;-79
2022/06/19 06:13:37;;;;;;;1.65;0.60;;;19.80;53.40;;;;;;5053927;28;20045;-79
2022/06/19 06:16:03;;;;;;;2.22;0.57;;;19.70;53.60;;;;;;5033492;28;20141;-78
2022/06/19 06:18:29;;;;;;;0.83;0.50;;;19.70;53.70;;;;;;5011461;28;20041;-78
2022/06/19 06:21:00;;;;;;;1.23;0.57;;;19.70;53.80;;;;;;5046584;28;20053;-79
2022/06/19 06:23:27;;;;;;;1.75;0.40;;;19.70;53.80;;;;;;5036135;28;20056;-79
2022/06/19 06:26:12;;;;;;;1.75;0.57;;;19.70;53.80;;;;;;5030585;28;20277;-79
2022/06/19 06:28:40;;;;;;;2.13;0.40;;;19.70;54.40;;;;;;5039987;28;20036;-79
2022/06/19 06:31:07;;;;;;;1.80;0.40;;;19.70;53.90;;;;;;5052832;28;20036;-80
2022/06/19 06:33:33;;;;;;;2.35;0.65;;;19.70;54.00;;;;;;5022202;28;20040;-79
2022/06/19 06:35:59;;;;;;;1.98;0.60;;;19.70;54.10;;;;;;5040624;28;20055;-79
2022/06/19 06:38:25;;;;;;;2.17;0.50;;;19.70;54.10;;;;;;5050065;28;20087;-79
2022/06/19 06:40:51;;;;;;;2.00;0.53;;;19.70;54.30;;;;;;5027942;28;20040;-79
2022/06/19 06:43:18;;;;;;;2.10;0.60;;;19.70;54.30;;;;;;5050296;28;20037;-79
2022/06/19 06:45:43;;;;;;;0.85;0.52;;;19.60;54.20;;;;;;5053116;28;20036;-79
2022/06/19 06:48:10;;;;;;;2.45;0.60;;;19.60;54.20;;;;;;5027440;28;20083;-80
2022/06/19 06:50:38;;;;;;;2.67;0.70;;;19.60;54.20;;;;;;5039256;28;20033;-80
2022/06/19 06:53:03;;;;;;;1.75;0.63;;;19.50;54.40;;;;;;5048092;28;20063;-79
2022/06/19 06:55:29;;;;;;;2.15;0.60;;;19.30;54.20;;;;;;5043513;28;20041;-80
2022/06/19 06:57:55;;;;;;;2.30;0.90;;;19.20;54.30;;;;;;5021796;28;20037;-80
2022/06/19 07:00:22;;;;;;;2.03;0.70;;;19.10;54.60;;;;;;5049475;28;20044;-79
2022/06/19 07:02:48;;;;;;;3.15;0.60;;;18.90;55.00;;;;;;5038065;28;20059;-78
2022/06/19 07:05:15;;;;;;;1.37;0.60;;;18.80;55.10;;;;;;5014423;28;20036;-78
2022/06/19 07:07:41;;;;;;;1.13;0.50;;;18.70;55.30;;;;;;5043537;28;20033;-78
2022/06/19 07:10:07;;;;;;;1.58;0.40;;;18.60;55.50;;;;;;5033361;28;20078;-78
2022/06/19 07:12:33;;;;;;;3.13;0.60;;;18.50;55.90;;;;;;5027203;28;20353;-78
2022/06/19 07:14:59;;;;;;;1.60;0.60;;;18.40;55.80;;;;;;5048698;28;20674;-79
2022/06/19 07:17:24;;;;;;;2.13;0.65;;;18.40;56.00;;;;;;5052209;28;20457;-78
2022/06/19 07:19:50;;;;;;;1.43;0.63;;;18.30;56.40;;;;;;5024739;28;20531;-79
2022/06/19 07:22:18;;;;;;;2.30;0.50;;;18.20;56.50;;;;;;5033395;28;20095;-80
2022/06/19 07:24:44;;;;;;;3.40;0.75;;;18.10;57.20;;;;;;5047531;28;20041;-80
2022/06/19 07:27:10;;;;;;;1.57;0.50;;;18.00;57.90;;;;;;5034658;28;20460;-80
2022/06/19 07:29:41;;;;;;;2.15;0.70;;;18.00;59.70;;;;;;5032352;28;20028;-80
2022/06/19 07:32:07;;;;;;;2.30;0.57;;;17.90;61.20;;;;;;5052233;28;20041;-81
2022/06/19 07:34:32;;;;;;;1.48;0.60;;;17.90;61.30;;;;;;5038741;28;20033;-80
2022/06/19 07:36:58;;;;;;;1.73;0.70;;;17.90;62.30;;;;;;5011738;28;20147;-80
2022/06/19 07:39:24;;;;;;;1.80;0.50;;;17.90;63.10;;;;;;5048460;28;20043;-81
2022/06/19 07:41:49;;;;;;;2.07;0.77;;;17.90;63.60;;;;;;5031367;28;20384;-80
2022/06/19 07:44:15;;;;;;;1.65;0.70;;;17.90;64.20;;;;;;5034430;28;20481;-81
2022/06/19 07:52:10;;;;;;;3.15;0.55;;;17.90;65.50;;;;;;5027101;28;20044;-81
2022/06/19 07:54:36;;;;;;;2.28;0.65;;;17.90;65.70;;;;;;5040811;28;20037;-80
2022/06/19 07:57:02;;;;;;;2.47;0.73;;;17.80;65.70;;;;;;5054914;28;20027;-79
2022/06/19 07:59:27;;;;;;;1.55;0.55;;;17.80;65.60;;;;;;5031518;28;20090;-80
2022/06/19 08:01:53;;;;;;;3.07;1.00;;;17.80;65.90;;;;;;5050093;28;20249;-79
2022/06/19 08:04:19;;;;;;;1.80;0.80;;;17.70;66.20;;;;;;5036631;28;20469;-80
2022/06/19 08:06:44;;;;;;;2.70;0.87;;;17.60;66.50;;;;;;5021169;28;20475;-79
2022/06/19 08:09:10;;;;;;;3.22;0.60;;;17.70;66.80;;;;;;5032729;28;20041;-79
2022/06/19 08:11:36;;;;;;;2.53;0.70;;;17.60;67.00;;;;;;5027533;28;20069;-79
2022/06/19 08:14:02;;;;;;;1.42;0.60;;;17.50;67.40;;;;;;5047970;28;20659;-79
2022/06/19 08:16:27;;;;;;;1.80;0.80;;;17.50;67.70;;;;;;5028638;28;20059;-80
2022/06/19 08:18:53;;;;;;;2.50;0.70;;;17.50;68.20;;;;;;5042251;28;20287;-80
2022/06/19 08:21:19;;;;;;;2.37;0.90;;;17.60;68.90;;;;;;5041092;28;20731;-80
2022/06/19 08:23:44;;;;;;;1.52;0.80;;;17.60;69.70;;;;;;5009916;28;20356;-79
2022/06/19 08:26:10;;;;;;;3.27;0.80;;;17.70;70.50;;;;;;5048251;28;20096;-79
2022/06/19 08:28:43;;;;;;;2.22;0.80;;;17.90;71.40;;;;;;5042190;28;20560;-79
2022/06/19 08:31:09;;;;;;;1.77;0.77;;;18.00;71.80;;;;;;5026079;28;20028;-79
2022/06/19 08:33:34;;;;;;;3.23;0.63;;;18.30;72.60;;;;;;5050342;28;20032;-79
2022/06/19 08:36:05;;;;;;;3.03;0.90;;;18.50;72.70;;;;;;5048617;28;20032;-79
2022/06/19 08:38:37;;;;;;;3.38;1.17;;;18.80;72.80;;;;;;5017380;28;20041;-79
2022/06/19 08:41:39;;;;;;;3.97;0.80;;;19.00;72.80;;;;;;5033305;28;20153;-79
2022/06/19 08:44:14;;;;;;;1.80;0.90;;;19.20;72.20;;;;;;5033335;28;20032;-79
2022/06/19 08:47:04;;;;;;;3.33;0.90;;;19.40;71.70;;;;;;5025465;28;20102;-79
2022/06/19 08:49:43;;;;;;;3.42;1.17;;;19.50;71.60;;;;;;5041693;28;20039;-79
2022/06/19 08:52:35;;;;;;;2.63;1.13;;;19.70;71.90;;;;;;5047337;28;20036;-80
2022/06/19 08:55:01;;;;;;;3.10;1.10;;;19.80;71.00;;;;;;5037197;28;20029;-80
2022/06/19 08:57:29;;;;;;;2.95;0.95;;;19.90;71.20;;;;;;5048234;28;20086;-80
2022/06/19 09:00:27;;;;;;;4.10;1.35;;;19.90;71.30;;;;;;5038667;28;20133;-79
2022/06/19 09:02:53;;;;;;;2.43;0.90;;;19.90;71.00;;;;;;5029877;28;20068;-79
2022/06/19 09:05:37;;;;;;;2.25;1.00;;;20.00;72.10;;;;;;5046018;28;20036;-79
2022/06/19 09:08:09;;;;;;;2.42;1.10;;;20.20;72.30;;;;;;5014650;28;22459;-80
2022/06/19 09:10:35;;;;;;;2.83;0.90;;;20.30;71.90;;;;;;5045063;28;20102;-80
2022/06/19 09:13:13;;;;;;;3.92;1.10;;;20.40;72.50;;;;;;5037047;28;20331;-78
2022/06/19 09:15:49;;;;;;;2.97;1.00;;;20.50;72.00;;;;;;5028138;28;20064;-79
2022/06/19 09:18:40;;;;;;;2.83;1.00;;;20.60;71.50;;;;;;5050773;28;20040;-79
2022/06/19 09:21:39;;;;;;;3.70;1.30;;;20.70;70.90;;;;;;5041316;28;20076;-81
2022/06/19 09:24:42;;;;;;;2.83;0.90;;;20.80;71.20;;;;;;5022199;28;20041;-79
2022/06/19 09:27:10;;;;;;;3.58;1.27;;;20.90;71.80;;;;;;5042635;28;20037;-79
2022/06/19 09:29:42;;;;;;;2.55;1.10;;;21.00;73.70;;;;;;5027868;28;20032;-80
2022/06/19 09:32:13;;;;;;;2.33;0.97;;;21.20;73.60;;;;;;5023292;28;20078;-80
2022/06/19 09:34:49;;;;;;;2.40;1.20;;;21.40;73.20;;;;;;5024958;28;20835;-79
2022/06/19 09:37:22;;;;;;;3.72;1.00;;;21.60;72.50;;;;;;5032594;28;20137;-80
2022/06/19 09:40:08;;;;;;;3.63;1.10;;;21.80;72.70;;;;;;4993151;28;20287;-76
2022/06/19 09:42:51;;;;;;;3.63;0.77;;;22.00;73.10;;;;;;5026481;28;20447;-74
2022/06/19 09:45:21;;;;;;;3.33;1.20;;;22.30;71.30;;;;;;5027979;28;20531;-75
2022/06/19 09:48:09;;;;;;;3.65;1.10;;;22.30;70.30;;;;;;5022211;28;20032;-75
2022/06/19 09:51:01;;;;;;;3.63;1.17;;;22.40;68.00;;;;;;5049167;28;20497;-73
2022/06/19 09:53:41;;;;;;;3.30;1.00;;;22.30;66.90;;;;;;5043546;28;20036;-76
2022/06/19 09:56:19;;;;;;;3.75;1.08;;;22.10;67.30;;;;;;5026528;28;20025;-76
2022/06/19 09:59:17;;;;;;;3.40;1.10;;;21.90;67.40;;;;;;5036278;28;20162;-74
2022/06/19 10:01:46;;;;;;;2.63;1.30;;;21.80;68.00;;;;;;5006392;28;20057;-75
2022/06/19 10:04:36;;;;;;;3.33;1.10;;;21.80;69.60;;;;;;5038798;28;20037;-76
2022/06/19 10:07:08;;;;;;;3.55;1.33;;;21.90;69.20;;;;;;5035017;28;20749;-76
2022/06/19 10:09:48;;;;;;;4.88;1.30;;;21.90;70.80;;;;;;5022177;28;20130;-75
2022/06/19 10:12:25;;;;;;;2.07;1.17;;;22.00;70.50;;;;;;5066646;28;20025;-75
2022/06/19 10:14:52;;;;;;;2.20;1.10;;;22.10;69.80;;;;;;5017171;28;20059;-76
2022/06/19 10:17:23;;;;;;;4.03;1.40;;;22.10;70.30;;;;;;5028938;28;20501;-76
2022/06/19 10:19:54;;;;;;;2.75;1.30;;;22.10;70.00;;;;;;5026961;28;20483;-76
2022/06/19 10:22:31;;;;;;;4.97;1.52;;;22.20;70.20;;;;;;5053149;28;20033;-75
2022/06/19 10:25:45;;;;;;;4.53;1.50;;;22.30;68.90;;;;;;5046241;28;20040;-75
2022/06/19 10:28:33;;;;;;;4.10;1.60;;;22.40;69.30;;;;;;5049926;28;20489;-75
2022/06/19 10:31:36;;;;;;;2.72;1.40;;;22.50;70.00;;;;;;5046111;28;20040;-76
2022/06/19 10:34:05;;;;;;;3.72;1.67;;;22.60;69.90;;;;;;5032989;28;20127;-75
2022/06/19 10:36:50;;;;;;;3.55;1.80;;;22.80;71.10;;;;;;5035554;28;20420;-76
2022/06/19 10:39:39;;;;;;;6.60;1.83;;;23.00;69.90;;;;;;5037289;28;20036;-75
2022/06/19 10:42:05;;;;;;;3.63;1.92;;;23.20;71.90;;;;;;5028886;28;20563;-75
2022/06/19 10:45:08;;;;;;;3.10;2.00;;;23.40;73.30;;;;;;5045139;28;20131;-75
2022/06/19 10:48:10;;;;;;;3.20;2.30;;;23.70;70.60;;;;;;5048916;28;20269;-76
2022/06/19 10:51:06;;;;;;;3.37;2.00;;;24.00;70.60;;;;;;5029800;28;20043;-76
2022/06/19 10:54:09;;;;;;;4.30;2.15;;;24.30;69.00;;;;;;5036232;28;20653;-76
2022/06/19 10:57:04;;;;;;;3.13;1.60;;;24.50;67.70;;;;;;5047824;28;20181;-75
2022/06/19 10:59:33;;;;;;;3.50;1.65;;;24.60;67.70;;;;;;5032251;28;20516;-76
2022/06/19 11:05:03;;;;;;;2.20;1.40;;;24.70;66.60;;;;;;5037620;28;20036;-76
2022/06/19 11:07:30;;;;;;;3.17;1.30;;;24.70;67.20;;;;;;5033371;28;20029;-76
2022/06/19 11:10:04;;;;;;;3.00;1.45;;;24.60;67.30;;;;;;5045816;28;20025;-76
2022/06/19 11:12:41;;;;;;;2.78;1.17;;;24.60;66.50;;;;;;5046230;28;20082;-75
2022/06/19 11:15:10;;;;;;;2.10;1.37;;;24.50;66.00;;;;;;5020498;28;20033;-75
2022/06/19 11:18:05;;;;;;;2.13;1.10;;;24.50;67.20;;;;;;5050877;28;20703;-76
2022/06/19 11:20:31;;;;;;;2.38;1.40;;;24.50;65.10;;;;;;5029286;28;20053;-75
2022/06/19 11:23:20;;;;;;;1.67;1.00;;;24.60;67.90;;;;;;5036973;28;20033;-75
2022/06/19 11:26:06;;;;;;;2.90;1.17;;;24.70;66.10;;;;;;5045731;28;20291;-76
2022/06/19 11:28:56;;;;;;;3.27;1.03;;;24.80;66.40;;;;;;5016489;28;20035;-75
2022/06/19 11:31:33;;;;;;;3.38;1.20;;;25.00;64.90;;;;;;5048395;28;20042;-76
2022/06/19 11:34:43;;;;;;;2.05;1.25;;;25.10;66.90;;;;;;5058855;28;20122;-76
2022/06/19 11:37:31;;;;;;;3.30;1.35;;;25.30;66.10;;;;;;5013940;28;20069;-75
2022/06/19 11:39:59;;;;;;;4.03;1.30;;;25.40;65.20;;;;;;5044408;28;20035;-75
2022/06/19 11:42:28;;;;;;;3.67;1.03;;;25.50;67.00;;;;;;5044575;28;20119;-76
2022/06/19 11:44:57;;;;;;;1.77;1.10;;;25.50;67.30;;;;;;5021915;28;20705;-76
2022/06/19 11:47:43;;;;;;;4.00;1.10;;;25.60;65.90;;;;;;5023492;28;20462;-75
2022/06/19 11:50:12;;;;;;;1.85;1.10;;;25.60;65.00;;;;;;5057281;28;20039;-76
2022/06/19 11:52:47;;;;;;;1.80;1.00;;;25.50;65.10;;;;;;5023060;28;20041;-75
2022/06/19 11:55:20;;;;;;;3.80;1.20;;;25.40;63.70;;;;;;5034680;28;20037;-75
2022/06/19 11:57:50;;;;;;;3.17;0.98;;;25.30;63.50;;;;;;5042434;28;20041;-75
2022/06/19 12:00:28;;;;;;;2.75;1.10;;;25.20;64.40;;;;;;5023020;28;20462;-75
2022/06/19 12:02:57;;;;;;;1.48;1.00;;;25.10;63.30;;;;;;5038699;28;20033;-75
2022/06/19 12:05:38;;;;;;;1.90;1.10;;;25.10;64.40;;;;;;5038168;28;20321;-75
2022/06/19 12:08:23;;;;;;;4.07;1.20;;;25.00;64.30;;;;;;5028238;28;20044;-75
2022/06/19 12:10:55;;;;;;;2.90;1.20;;;24.90;62.50;;;;;;5049963;28;20393;-76
2022/06/19 12:13:32;;;;;;;3.38;1.20;;;24.90;63.90;;;;;;5050897;28;20238;-75
2022/06/19 12:16:09;;;;;;;2.42;0.90;;;24.90;63.60;;;;;;5017759;28;20079;-75
2022/06/19 12:18:34;;;;;;;1.95;0.93;;;24.90;65.00;;;;;;5036220;28;20285;-75
2022/06/19 12:21:02;;;;;;;2.93;1.20;;;25.00;65.60;;;;;;5050052;28;20477;-75
2022/06/19 12:23:36;;;;;;;2.40;1.10;;;25.00;65.50;;;;;;5020857;28;20440;-76
2022/06/19 12:26:07;;;;;;;2.83;1.10;;;25.00;64.70;;;;;;5039895;28;20120;-75
2022/06/19 12:28:57;;;;;;;2.83;1.30;;;25.00;64.90;;;;;;5057954;28;20028;-76
2022/06/19 12:31:30;;;;;;;3.00;1.40;;;25.00;63.10;;;;;;5020458;28;20275;-75
2022/06/19 12:34:03;;;;;;;2.97;1.30;;;25.00;65.00;;;;;;5038675;28;20111;-75
2022/06/19 12:36:33;;;;;;;2.85;1.50;;;25.10;65.10;;;;;;5030934;28;20230;-75
2022/06/19 12:38:58;;;;;;;2.70;1.30;;;25.10;65.60;;;;;;5028557;28;20036;-75
2022/06/19 12:41:49;;;;;;;2.40;1.10;;;25.10;66.30;;;;;;5032573;28;20366;-75
2022/06/19 12:44:43;;;;;;;2.92;1.25;;;25.30;64.70;;;;;;5038542;28;20191;-76
2022/06/19 12:47:09;;;;;;;2.90;1.13;;;25.60;65.20;;;;;;5034508;28;20029;-75
2022/06/19 12:49:44;;;;;;;2.03;1.00;;;25.80;69.00;;;;;;5034521;28;20054;-75
2022/06/19 12:52:22;;;;;;;3.58;1.40;;;26.10;69.10;;;;;;5032834;28;20301;-75
2022/06/19 12:55:05;;;;;;;2.47;1.17;;;26.40;66.80;;;;;;5028500;28;20064;-75
2022/06/19 12:57:51;;;;;;;2.25;1.20;;;26.80;65.10;;;;;;5044412;28;20260;-75
2022/06/19 13:00:45;;;;;;;1.90;1.20;;;27.00;64.50;;;;;;5036646;28;20037;-75
2022/06/19 13:03:22;;;;;;;1.70;1.10;;;27.10;62.20;;;;;;5024328;28;20037;-75
2022/06/19 13:06:19;;;;;;;3.63;1.25;;;27.10;63.10;;;;;;5035601;28;20105;-75
2022/06/19 13:09:13;;;;;;;3.30;1.30;;;27.10;60.90;;;;;;5041328;28;20056;-75
2022/06/19 13:11:46;;;;;;;2.67;1.27;;;26.90;61.10;;;;;;5027581;28;20041;-75
2022/06/19 13:14:36;;;;;;;3.37;1.33;;;26.80;60.90;;;;;;5040172;28;20116;-75
2022/06/19 13:17:27;;;;;;;2.88;1.27;;;26.60;60.60;;;;;;5007430;28;20339;-74
2022/06/19 13:19:55;;;;;;;2.40;1.30;;;26.50;61.30;;;;;;5039802;28;20542;-75
2022/06/19 13:22:39;;;;;;;3.05;1.30;;;26.30;62.90;;;;;;5033563;28;20156;-76
2022/06/19 13:25:17;;;;;;;3.17;1.17;;;26.10;60.70;;;;;;5031654;28;20138;-75